Time;durP1;ratioP1;P1;durP2;ratioP2;P2;SDS_P1;SDS_P2;PMS_P1;PMS_P2;Temp;Humidity;BMP_temperature;BMP_pressure;BME280_temperature;BME280_humidity;BME280_pressure;Samples;Min_cycle;Max_cycle;Signal;HPM_P1;HPM_P2
2022/05/16 00:01:47;;;;;;;11.20;4.90;;;17.30;99.90;;;;;;5052341;28;20029;-63
2022/05/16 00:04:13;;;;;;;14.80;4.45;;;17.20;99.90;;;;;;5052261;28;20029;-65
2022/05/16 00:06:39;;;;;;;11.13;5.03;;;17.20;99.90;;;;;;5052573;28;20105;-63
2022/05/16 00:09:04;;;;;;;15.20;4.60;;;17.20;99.90;;;;;;5052670;28;20039;-64
2022/05/16 00:11:31;;;;;;;18.52;5.20;;;17.20;99.90;;;;;;5052383;28;20026;-63
2022/05/16 00:13:56;;;;;;;14.32;4.13;;;17.20;99.90;;;;;;5052064;28;20021;-63
2022/05/16 00:16:22;;;;;;;12.57;3.95;;;17.20;99.90;;;;;;5052475;28;20024;-64
2022/05/16 00:18:48;;;;;;;13.90;4.22;;;17.20;99.90;;;;;;5051939;28;20097;-63
2022/05/16 00:21:14;;;;;;;13.40;4.28;;;17.20;99.90;;;;;;5051819;28;20056;-65
2022/05/16 00:23:39;;;;;;;15.15;4.13;;;17.20;99.90;;;;;;5052539;28;20643;-63
2022/05/16 00:26:05;;;;;;;12.77;4.38;;;17.10;99.90;;;;;;5052259;28;20439;-63
2022/05/16 00:28:30;;;;;;;17.05;4.30;;;17.10;99.90;;;;;;5052249;28;20120;-67
2022/05/16 00:30:56;;;;;;;15.27;4.18;;;17.10;99.90;;;;;;5051778;28;20045;-63
2022/05/16 00:33:22;;;;;;;10.70;3.85;;;17.10;99.90;;;;;;5052193;28;20028;-63
2022/05/16 00:35:47;;;;;;;10.43;3.47;;;17.10;99.90;;;;;;5050658;28;20017;-66
2022/05/16 00:38:13;;;;;;;12.00;3.42;;;17.00;99.90;;;;;;5051915;28;20435;-64
2022/05/16 00:40:38;;;;;;;8.27;3.25;;;17.10;99.90;;;;;;5052216;28;20102;-65
2022/05/16 00:43:10;;;;;;;13.77;3.88;;;17.00;99.90;;;;;;5050505;28;20040;-63
2022/05/16 00:45:36;;;;;;;15.20;3.58;;;17.00;99.90;;;;;;5054964;28;20021;-66
2022/05/16 00:48:02;;;;;;;9.75;3.53;;;17.00;99.90;;;;;;5055930;28;20029;-62
2022/05/16 00:50:28;;;;;;;10.57;3.50;;;16.90;99.90;;;;;;5055347;28;20103;-63
2022/05/16 00:52:55;;;;;;;15.63;4.10;;;16.90;99.90;;;;;;5054459;28;20365;-62
2022/05/16 00:55:33;;;;;;;13.18;3.55;;;16.90;99.90;;;;;;5056234;28;20025;-62
2022/05/16 00:58:04;;;;;;;14.05;3.92;;;16.90;99.90;;;;;;5055845;28;20079;-62
2022/05/16 01:00:32;;;;;;;12.80;3.72;;;16.90;99.90;;;;;;5055485;28;20028;-62
2022/05/16 01:05:48;;;;;;;13.23;4.35;;;16.90;99.90;;;;;;5055616;28;20104;-62
2022/05/16 01:08:19;;;;;;;12.70;3.70;;;16.80;99.90;;;;;;5053973;28;20119;-63
2022/05/16 01:10:46;;;;;;;17.13;4.65;;;16.80;99.90;;;;;;5055756;28;20025;-63
2022/05/16 01:13:13;;;;;;;16.45;4.30;;;16.80;99.90;;;;;;5055246;28;20021;-62
2022/05/16 01:15:41;;;;;;;13.70;4.20;;;16.80;99.90;;;;;;5055233;28;20032;-62
2022/05/16 01:18:08;;;;;;;18.42;4.10;;;16.80;99.90;;;;;;5055199;28;20124;-64
2022/05/16 01:20:52;;;;;;;11.93;4.07;;;16.70;99.90;;;;;;5055188;28;20032;-63
2022/05/16 01:23:22;;;;;;;20.58;4.18;;;16.70;99.90;;;;;;5055073;28;20389;-62
2022/05/16 01:25:50;;;;;;;15.45;3.88;;;16.70;99.90;;;;;;5054823;28;20023;-63
2022/05/16 01:28:19;;;;;;;18.30;4.72;;;16.70;99.90;;;;;;5055064;28;20453;-65
2022/05/16 01:30:46;;;;;;;17.73;4.50;;;16.60;99.90;;;;;;5055062;28;20120;-63
2022/05/16 01:33:16;;;;;;;14.52;4.25;;;16.60;99.90;;;;;;5055106;28;20070;-65
2022/05/16 01:35:42;;;;;;;16.23;4.18;;;16.60;99.90;;;;;;5054874;28;20021;-63
2022/05/16 01:38:19;;;;;;;10.38;4.40;;;16.60;99.90;;;;;;5055058;28;20529;-66
2022/05/16 01:40:46;;;;;;;14.23;4.13;;;16.60;99.90;;;;;;5055035;28;20475;-64
2022/05/16 01:43:13;;;;;;;16.80;4.53;;;16.60;99.90;;;;;;5053502;28;20036;-61
2022/05/16 01:45:41;;;;;;;18.83;4.38;;;16.50;99.90;;;;;;5054746;28;20047;-63
2022/05/16 01:48:08;;;;;;;11.63;4.15;;;16.50;99.90;;;;;;5054777;28;20033;-64
2022/05/16 01:50:34;;;;;;;17.13;4.63;;;16.50;99.90;;;;;;5054847;28;20029;-65
2022/05/16 01:52:59;;;;;;;15.25;4.05;;;16.50;99.90;;;;;;5053297;28;20024;-63
2022/05/16 01:55:25;;;;;;;14.02;4.22;;;16.50;99.90;;;;;;5054003;28;20021;-66
2022/05/16 01:57:50;;;;;;;10.98;4.35;;;16.50;99.90;;;;;;5053937;28;20025;-63
2022/05/16 02:00:17;;;;;;;13.05;4.18;;;16.50;99.90;;;;;;5054558;28;20192;-66
2022/05/16 02:02:44;;;;;;;15.32;4.57;;;16.40;99.90;;;;;;5053137;28;20055;-63
2022/05/16 02:05:13;;;;;;;13.32;4.22;;;16.40;99.90;;;;;;5054085;28;20032;-61
2022/05/16 02:07:39;;;;;;;16.33;4.20;;;16.40;99.90;;;;;;5054557;28;20043;-62
2022/05/16 02:10:09;;;;;;;13.65;4.10;;;16.40;99.90;;;;;;5054131;28;20104;-65
2022/05/16 02:12:36;;;;;;;11.00;3.70;;;16.30;99.90;;;;;;5054131;28;20028;-65
2022/05/16 02:15:03;;;;;;;19.15;4.30;;;16.30;99.90;;;;;;5054272;28;20055;-64
2022/05/16 02:17:29;;;;;;;17.25;4.53;;;16.30;99.90;;;;;;5054173;28;20374;-63
2022/05/16 02:19:54;;;;;;;15.18;3.92;;;16.30;99.90;;;;;;5053771;28;20029;-63
2022/05/16 02:25:05;;;;;;;14.75;3.83;;;16.30;99.90;;;;;;5053881;28;20032;-63
2022/05/16 02:27:31;;;;;;;14.27;4.05;;;16.30;99.90;;;;;;5054078;28;20025;-63
2022/05/16 02:29:57;;;;;;;10.13;3.92;;;16.30;99.90;;;;;;5053827;28;20049;-66
2022/05/16 02:32:23;;;;;;;14.77;4.47;;;16.30;99.90;;;;;;5053895;28;20036;-63
2022/05/16 02:34:49;;;;;;;12.60;3.85;;;16.20;99.90;;;;;;5053937;28;20407;-66
2022/05/16 02:37:15;;;;;;;12.95;3.60;;;16.20;99.90;;;;;;5054244;28;20090;-63
2022/05/16 02:39:44;;;;;;;15.25;3.97;;;16.20;99.90;;;;;;5054000;28;20024;-63
2022/05/16 02:42:14;;;;;;;14.45;4.03;;;16.20;99.90;;;;;;5053818;28;20013;-63
2022/05/16 02:44:40;;;;;;;12.45;3.63;;;16.20;99.90;;;;;;5053729;28;20017;-63
2022/05/16 02:47:06;;;;;;;12.48;3.67;;;16.20;99.90;;;;;;5053294;28;20029;-63
2022/05/16 02:49:33;;;;;;;14.35;4.05;;;16.20;99.90;;;;;;5053789;28;20033;-63
2022/05/16 02:51:59;;;;;;;13.55;3.80;;;16.20;99.90;;;;;;5053572;28;20025;-66
2022/05/16 02:54:24;;;;;;;13.38;3.72;;;16.20;99.90;;;;;;5053592;28;20418;-63
2022/05/16 02:56:50;;;;;;;12.40;4.20;;;16.20;99.90;;;;;;5053760;28;20031;-66
2022/05/16 02:59:16;;;;;;;11.18;3.80;;;16.20;99.90;;;;;;5053475;28;20033;-62
2022/05/16 03:01:42;;;;;;;15.93;4.07;;;16.20;99.90;;;;;;5053077;28;20365;-64
2022/05/16 03:04:08;;;;;;;14.45;3.80;;;16.20;99.90;;;;;;5053433;28;20032;-66
2022/05/16 03:06:34;;;;;;;10.88;3.72;;;16.10;99.90;;;;;;5053463;28;20119;-65
2022/05/16 03:09:00;;;;;;;13.30;4.03;;;16.10;99.90;;;;;;5052960;28;20522;-66
2022/05/16 03:11:25;;;;;;;10.15;3.20;;;16.10;99.90;;;;;;5053074;28;20033;-63
2022/05/16 03:13:51;;;;;;;12.65;3.53;;;16.10;99.90;;;;;;5052997;28;20028;-62
2022/05/16 03:16:17;;;;;;;10.25;3.63;;;16.10;99.90;;;;;;5052770;28;20027;-66
2022/05/16 03:18:43;;;;;;;15.55;4.55;;;16.00;99.90;;;;;;5053209;28;20055;-67
2022/05/16 03:21:09;;;;;;;11.13;3.38;;;16.00;99.90;;;;;;5052976;28;20032;-63
2022/05/16 03:23:35;;;;;;;15.55;4.25;;;16.00;99.90;;;;;;5052840;28;20112;-64
2022/05/16 03:26:00;;;;;;;12.05;3.78;;;16.00;99.90;;;;;;5052820;28;20024;-64
2022/05/16 03:28:26;;;;;;;14.98;3.33;;;16.10;99.90;;;;;;5051548;28;20468;-63
2022/05/16 03:30:53;;;;;;;14.50;3.95;;;16.10;99.90;;;;;;5052570;28;20049;-64
2022/05/16 03:33:19;;;;;;;11.95;3.60;;;16.20;99.90;;;;;;5052807;28;20013;-63
2022/05/16 03:35:45;;;;;;;14.45;3.90;;;16.20;99.90;;;;;;5052967;28;20445;-64
2022/05/16 03:40:41;;;;;;;14.30;4.13;;;16.20;99.90;;;;;;5051351;28;20021;-63
2022/05/16 03:40:57;;;;;;;11.05;3.90;;;16.20;99.90;;;;;;5052794;28;20028;-65
2022/05/16 03:43:23;;;;;;;11.60;3.90;;;16.20;99.90;;;;;;5052580;28;20056;-63
2022/05/16 03:45:49;;;;;;;10.60;3.58;;;16.30;99.90;;;;;;5052769;28;20061;-65
2022/05/16 03:48:14;;;;;;;14.98;4.30;;;16.20;99.90;;;;;;5052606;28;20028;-64
2022/05/16 03:50:40;;;;;;;14.40;4.53;;;16.20;99.90;;;;;;5052549;28;20135;-63
2022/05/16 03:53:06;;;;;;;12.60;3.63;;;16.20;99.90;;;;;;5052679;28;20048;-64
2022/05/16 03:55:32;;;;;;;9.75;3.67;;;16.20;99.90;;;;;;5052237;28;20096;-63
2022/05/16 03:57:58;;;;;;;12.40;4.45;;;16.20;99.90;;;;;;5050461;28;20143;-63
2022/05/16 04:00:24;;;;;;;16.00;4.00;;;16.20;99.90;;;;;;5052154;28;20500;-65
2022/05/16 04:02:50;;;;;;;11.10;3.38;;;16.20;99.90;;;;;;5052424;28;20048;-63
2022/05/16 04:05:19;;;;;;;10.90;3.85;;;16.30;99.90;;;;;;5052318;28;20021;-65
2022/05/16 04:07:46;;;;;;;14.60;3.80;;;16.30;99.90;;;;;;5052131;28;20053;-64
2022/05/16 04:10:12;;;;;;;12.65;3.53;;;16.40;99.90;;;;;;5052250;28;20017;-63
2022/05/16 04:12:37;;;;;;;12.88;3.67;;;16.40;99.90;;;;;;5051975;28;20040;-63
2022/05/16 04:15:04;;;;;;;16.70;3.92;;;16.50;99.90;;;;;;5052619;28;20021;-65
2022/05/16 04:17:30;;;;;;;12.80;3.30;;;16.50;99.90;;;;;;5052175;28;20035;-64
2022/05/16 04:19:55;;;;;;;11.40;4.05;;;16.60;99.90;;;;;;5053929;28;20369;-63
2022/05/16 04:22:21;;;;;;;14.02;3.80;;;16.70;99.90;;;;;;5056033;28;20025;-65
2022/05/16 04:24:47;;;;;;;9.32;3.28;;;16.80;99.90;;;;;;5056116;28;20092;-64
2022/05/16 04:27:13;;;;;;;15.85;4.97;;;16.90;99.90;;;;;;5055799;28;20025;-62
2022/05/16 04:29:38;;;;;;;12.68;3.58;;;17.00;99.90;;;;;;5055638;28;20052;-63
2022/05/16 04:32:04;;;;;;;11.88;3.55;;;17.10;99.90;;;;;;5056078;28;20031;-63
2022/05/16 04:34:30;;;;;;;13.48;3.65;;;17.20;99.90;;;;;;5054729;28;20056;-67
2022/05/16 04:36:55;;;;;;;16.65;4.13;;;17.30;99.90;;;;;;5055536;28;20484;-63
2022/05/16 04:39:21;;;;;;;15.30;4.00;;;17.40;99.90;;;;;;5054462;28;20044;-63
2022/05/16 04:44:36;;;;;;;11.73;4.22;;;17.50;99.90;;;;;;5055925;28;20111;-63
2022/05/16 04:47:02;;;;;;;15.40;5.30;;;17.60;99.90;;;;;;5055838;28;20052;-63
2022/05/16 04:49:29;;;;;;;12.43;3.90;;;17.60;99.90;;;;;;5055701;28;20766;-63
2022/05/16 04:51:54;;;;;;;11.38;3.97;;;17.70;99.90;;;;;;5055577;28;20028;-66
2022/05/16 04:54:20;;;;;;;13.60;3.90;;;17.80;99.90;;;;;;5055694;28;20496;-66
2022/05/16 04:56:46;;;;;;;15.57;4.05;;;17.80;99.90;;;;;;5055410;28;20028;-62
2022/05/16 04:59:13;;;;;;;9.82;3.72;;;17.90;99.90;;;;;;5055357;28;20520;-64
2022/05/16 05:01:38;;;;;;;13.63;4.20;;;18.00;99.90;;;;;;5055691;28;20074;-62
2022/05/16 05:04:04;;;;;;;11.65;3.53;;;18.10;99.90;;;;;;5054075;28;20033;-62
2022/05/16 05:06:30;;;;;;;13.90;4.15;;;18.30;99.90;;;;;;5055417;28;20021;-64
2022/05/16 05:08:56;;;;;;;14.88;3.80;;;18.40;99.90;;;;;;5055562;28;20020;-63
2022/05/16 05:16:51;;;;;;;10.40;3.95;;;18.90;99.90;;;;;;5055334;28;20051;-62
2022/05/16 05:19:16;;;;;;;11.32;3.45;;;19.20;99.90;;;;;;5053814;28;20037;-65
2022/05/16 05:21:42;;;;;;;13.32;4.28;;;19.30;99.80;;;;;;5055633;28;20029;-62
2022/05/16 05:24:08;;;;;;;19.05;6.60;;;19.50;99.60;;;;;;5055086;28;20078;-63
2022/05/16 05:26:35;;;;;;;13.25;4.85;;;19.60;99.40;;;;;;5055450;28;20044;-62
2022/05/16 05:29:00;;;;;;;18.67;5.55;;;19.70;99.40;;;;;;5055429;28;20056;-62
2022/05/16 05:31:26;;;;;;;19.75;6.43;;;19.80;99.40;;;;;;5053802;28;20465;-62
2022/05/16 05:33:53;;;;;;;19.65;6.55;;;19.90;99.00;;;;;;5055226;28;20025;-63
2022/05/16 05:36:19;;;;;;;26.58;8.38;;;20.10;98.90;;;;;;5055093;28;20074;-63
2022/05/16 05:38:50;;;;;;;20.40;8.20;;;20.30;98.70;;;;;;5055095;28;20435;-63
2022/05/16 05:41:15;;;;;;;20.77;6.18;;;20.50;98.40;;;;;;5055032;28;20099;-63
2022/05/16 05:43:41;;;;;;;13.80;5.63;;;20.60;98.10;;;;;;5054831;28;20104;-66
2022/05/16 05:46:06;;;;;;;12.23;4.40;;;20.80;97.90;;;;;;5054802;28;20096;-62
2022/05/16 05:48:32;;;;;;;17.05;5.32;;;21.10;97.60;;;;;;5054904;28;20031;-62
2022/05/16 05:50:58;;;;;;;12.50;4.72;;;21.30;97.50;;;;;;5055117;28;20020;-63
2022/05/16 05:53:23;;;;;;;15.65;4.70;;;21.50;97.00;;;;;;5055172;28;20060;-67
2022/05/16 05:55:50;;;;;;;11.82;3.95;;;21.50;96.70;;;;;;5054489;28;20021;-63
2022/05/16 05:58:16;;;;;;;14.18;5.00;;;21.60;96.60;;;;;;5054452;28;20064;-66
2022/05/16 06:00:42;;;;;;;10.40;4.70;;;21.80;96.60;;;;;;5054365;28;20060;-62
2022/05/16 06:03:08;;;;;;;13.32;4.05;;;22.00;96.30;;;;;;5053910;28;20338;-67
2022/05/16 06:05:34;;;;;;;17.92;4.60;;;22.10;96.10;;;;;;5054229;28;20017;-64
2022/05/16 06:08:00;;;;;;;12.93;4.45;;;22.30;96.00;;;;;;5054661;28;20469;-67
2022/05/16 06:10:26;;;;;;;14.43;4.95;;;22.40;95.60;;;;;;5054697;28;20112;-66
2022/05/16 06:12:52;;;;;;;12.88;4.03;;;22.50;95.60;;;;;;5054406;28;20021;-62
2022/05/16 06:15:18;;;;;;;13.73;3.95;;;22.60;95.50;;;;;;5054280;28;20032;-65
2022/05/16 06:17:43;;;;;;;12.57;4.45;;;22.70;95.30;;;;;;5054009;28;20033;-63
2022/05/16 06:20:10;;;;;;;10.07;3.85;;;22.80;95.00;;;;;;5054552;28;20100;-63
2022/05/16 06:22:38;;;;;;;11.15;3.80;;;23.00;94.80;;;;;;5053905;28;20419;-64
2022/05/16 06:25:31;;;;;;;10.55;3.72;;;23.00;94.50;;;;;;5052753;28;20021;-63
2022/05/16 06:28:08;;;;;;;12.57;4.50;;;23.00;94.30;;;;;;5053581;28;20051;-65
2022/05/16 06:30:36;;;;;;;13.50;5.05;;;22.80;94.40;;;;;;5054204;28;20044;-63
2022/05/16 06:33:01;;;;;;;13.38;4.13;;;22.70;94.70;;;;;;5053836;28;20028;-63
2022/05/16 06:35:27;;;;;;;11.82;4.07;;;22.70;94.80;;;;;;5053856;28;20021;-63
2022/05/16 06:37:53;;;;;;;10.00;4.13;;;22.60;94.70;;;;;;5054009;28;20043;-63
2022/05/16 06:40:20;;;;;;;18.15;4.82;;;22.60;94.80;;;;;;5053879;28;20029;-63
2022/05/16 06:42:46;;;;;;;14.15;4.13;;;22.60;94.70;;;;;;5053277;28;20025;-63
2022/05/16 06:45:14;;;;;;;15.38;4.22;;;22.60;94.50;;;;;;5053924;28;20141;-64
2022/05/16 06:47:40;;;;;;;17.00;4.00;;;22.70;94.40;;;;;;5053882;28;20107;-63
2022/05/16 06:50:06;;;;;;;10.52;4.63;;;22.70;94.60;;;;;;5053657;28;20417;-62
2022/05/16 06:52:31;;;;;;;10.50;4.32;;;22.70;94.50;;;;;;5051902;28;20027;-63
2022/05/16 06:54:57;;;;;;;15.90;4.88;;;22.60;94.40;;;;;;5053109;28;20025;-65
2022/05/16 06:57:23;;;;;;;13.75;4.55;;;22.40;94.60;;;;;;5050624;28;20040;-63
2022/05/16 06:59:48;;;;;;;14.82;4.70;;;22.20;94.90;;;;;;5050871;28;20023;-62
2022/05/16 07:02:14;;;;;;;15.93;5.05;;;22.00;95.20;;;;;;5052745;28;20100;-63
2022/05/16 07:04:40;;;;;;;14.23;4.57;;;21.80;95.50;;;;;;5053266;28;20019;-63
2022/05/16 07:07:08;;;;;;;15.40;6.40;;;21.80;95.60;;;;;;5053206;28;20021;-62
2022/05/16 07:09:36;;;;;;;15.75;5.55;;;21.70;95.80;;;;;;5051666;28;20047;-62
2022/05/16 07:12:01;;;;;;;13.77;5.00;;;21.70;95.90;;;;;;5052656;28;20412;-65
2022/05/16 07:14:27;;;;;;;14.90;4.88;;;21.60;96.00;;;;;;5053407;28;20021;-63
2022/05/16 07:16:52;;;;;;;17.02;4.68;;;21.50;96.10;;;;;;5053389;28;20021;-63
2022/05/16 07:19:18;;;;;;;14.30;4.70;;;21.50;96.20;;;;;;5052726;28;20033;-66
2022/05/16 07:21:43;;;;;;;12.90;4.90;;;21.50;96.40;;;;;;5052758;28;20071;-63
2022/05/16 07:24:09;;;;;;;12.93;4.40;;;21.50;96.60;;;;;;5052436;28;20020;-63
2022/05/16 07:29:19;;;;;;;12.63;4.47;;;21.60;96.50;;;;;;5052291;28;20032;-65
2022/05/16 07:31:46;;;;;;;14.18;4.57;;;21.80;96.40;;;;;;5052465;28;20033;-65
2022/05/16 07:34:12;;;;;;;13.43;5.15;;;22.00;96.10;;;;;;5052698;28;20061;-63
2022/05/16 07:36:38;;;;;;;13.52;5.07;;;22.20;96.00;;;;;;5052532;28;20025;-61
2022/05/16 07:39:03;;;;;;;16.00;5.68;;;22.50;95.90;;;;;;5052124;28;20112;-62
2022/05/16 07:41:31;;;;;;;14.50;5.30;;;22.70;95.60;;;;;;5052302;28;20420;-61
2022/05/16 07:43:57;;;;;;;14.65;5.20;;;22.90;95.20;;;;;;5052476;28;20033;-62
2022/05/16 07:46:23;;;;;;;12.70;4.65;;;23.00;94.90;;;;;;5053069;28;20028;-65
2022/05/16 07:48:48;;;;;;;18.73;5.13;;;23.20;94.90;;;;;;5052297;28;20358;-66
2022/05/16 07:51:14;;;;;;;18.77;5.22;;;23.30;94.80;;;;;;5052018;28;20061;-65
2022/05/16 07:53:39;;;;;;;19.02;4.85;;;23.50;94.60;;;;;;5052579;28;20158;-61
2022/05/16 07:56:05;;;;;;;12.50;5.35;;;23.80;94.50;;;;;;5051000;28;20035;-60
2022/05/16 07:58:31;;;;;;;15.82;5.45;;;24.10;94.00;;;;;;5051087;28;20102;-62
2022/05/16 08:00:57;;;;;;;14.40;5.82;;;24.30;93.80;;;;;;5052343;28;20017;-63
2022/05/16 08:03:26;;;;;;;13.48;5.50;;;24.50;93.20;;;;;;5052831;28;20371;-62
2022/05/16 08:05:51;;;;;;;11.95;4.82;;;24.50;93.30;;;;;;5052001;28;20393;-63
2022/05/16 08:11:17;;;;;;;12.30;4.95;;;24.50;93.00;;;;;;5049972;28;20075;-62
2022/05/16 08:13:43;;;;;;;10.93;5.05;;;24.50;93.20;;;;;;5051342;28;20033;-62
2022/05/16 08:16:10;;;;;;;14.40;4.95;;;24.50;93.30;;;;;;5051818;28;20368;-62
2022/05/16 08:18:35;;;;;;;15.02;5.30;;;24.40;93.20;;;;;;5052097;28;20040;-61
2022/05/16 08:21:01;;;;;;;10.68;5.43;;;24.30;93.50;;;;;;5052016;28;20416;-63
2022/05/16 08:23:29;;;;;;;11.48;5.00;;;24.10;93.80;;;;;;5051914;28;20044;-63
2022/05/16 08:25:56;;;;;;;15.02;5.43;;;24.00;94.00;;;;;;5051871;28;20021;-62
2022/05/16 08:28:22;;;;;;;14.25;5.63;;;23.90;94.10;;;;;;5052084;28;20075;-62
2022/05/16 08:30:49;;;;;;;13.40;5.45;;;24.00;94.20;;;;;;5051725;28;20051;-64
2022/05/16 08:33:15;;;;;;;14.27;5.68;;;24.20;94.00;;;;;;5051974;28;20021;-63
2022/05/16 08:35:40;;;;;;;14.55;5.85;;;24.50;93.40;;;;;;5052126;28;20415;-67
2022/05/16 08:41:04;;;;;;;17.58;5.88;;;24.90;93.10;;;;;;5051962;28;20036;-63
2022/05/16 08:43:56;;;;;;;13.75;5.18;;;24.90;93.00;;;;;;5051998;28;20021;-63
2022/05/16 08:46:46;;;;;;;12.85;5.60;;;24.90;93.00;;;;;;5052115;28;20031;-66
2022/05/16 08:49:26;;;;;;;15.48;5.50;;;24.90;93.00;;;;;;5052013;28;20029;-63
2022/05/16 08:52:03;;;;;;;14.30;5.30;;;24.80;93.30;;;;;;5052327;28;20116;-63
2022/05/16 08:54:37;;;;;;;13.32;5.85;;;25.00;93.30;;;;;;5052125;28;20060;-62
2022/05/16 08:57:07;;;;;;;14.75;6.20;;;25.00;93.00;;;;;;5052182;28;20052;-62
2022/05/16 08:59:36;;;;;;;11.82;5.53;;;25.10;92.90;;;;;;5052062;28;20175;-63
2022/05/16 09:02:08;;;;;;;14.35;5.30;;;25.50;93.00;;;;;;5051843;28;20025;-62
2022/05/16 09:05:07;;;;;;;11.60;5.57;;;26.70;91.80;;;;;;5051785;28;20107;-62
2022/05/16 09:07:40;;;;;;;14.57;5.90;;;27.90;90.80;;;;;;5055660;28;20040;-64
2022/05/16 09:10:25;;;;;;;14.18;5.85;;;29.10;89.00;;;;;;5055928;28;20025;-62
2022/05/16 09:13:02;;;;;;;15.52;5.47;;;30.40;87.00;;;;;;5055694;28;20024;-64
2022/05/16 09:15:31;;;;;;;11.00;5.05;;;31.90;82.50;;;;;;5055657;28;20021;-64
2022/05/16 09:18:24;;;;;;;15.55;5.95;;;33.40;78.10;;;;;;5053568;28;20061;-63
2022/05/16 09:21:08;;;;;;;16.80;6.00;;;34.50;75.20;;;;;;5038044;28;20028;-65
2022/05/16 09:23:58;;;;;;;14.50;4.60;;;35.60;71.60;;;;;;5062491;28;20032;-63
2022/05/16 09:26:45;;;;;;;11.73;4.90;;;36.70;67.90;;;;;;5069239;28;20385;-63
2022/05/16 09:29:39;;;;;;;12.57;4.93;;;37.50;65.00;;;;;;5072081;28;20028;-63
2022/05/16 09:32:16;;;;;;;9.68;4.50;;;37.90;62.70;;;;;;5055296;28;20025;-62
2022/05/16 09:34:42;;;;;;;7.57;4.22;;;38.20;61.10;;;;;;5055009;28;20481;-64
2022/05/16 09:37:08;;;;;;;8.05;3.58;;;38.40;60.30;;;;;;5053271;28;20021;-64
2022/05/16 09:39:35;;;;;;;8.20;3.80;;;38.60;59.20;;;;;;5071858;28;20472;-64
2022/05/16 09:42:11;;;;;;;11.63;4.50;;;38.20;58.40;;;;;;5074974;28;20035;-62
2022/05/16 09:44:48;;;;;;;8.95;4.60;;;36.70;59.60;;;;;;5073705;28;20368;-63
2022/05/16 09:47:28;;;;;;;11.15;4.43;;;35.70;60.60;;;;;;5075248;28;20028;-65
2022/05/16 09:50:02;;;;;;;12.82;5.60;;;35.30;61.10;;;;;;5074509;28;20047;-62
2022/05/16 09:52:31;;;;;;;12.02;5.13;;;34.80;61.90;;;;;;5074995;28;20048;-64
2022/05/16 09:55:03;;;;;;;12.50;5.07;;;34.60;62.30;;;;;;5071441;28;20074;-62
2022/05/16 09:57:37;;;;;;;11.82;5.47;;;33.90;63.00;;;;;;5054456;28;20100;-63
2022/05/16 10:00:30;;;;;;;11.38;5.20;;;33.80;63.40;;;;;;5054385;28;20071;-63
2022/05/16 10:03:19;;;;;;;13.95;6.00;;;33.30;64.20;;;;;;5044241;28;20033;-63
2022/05/16 10:05:47;;;;;;;12.57;5.85;;;33.10;64.30;;;;;;5036530;28;20466;-66
2022/05/16 10:08:23;;;;;;;17.00;6.68;;;32.80;64.70;;;;;;5053028;28;20108;-63
2022/05/16 10:10:49;;;;;;;12.57;6.55;;;32.60;65.20;;;;;;5052712;28;20020;-64
2022/05/16 10:13:16;;;;;;;10.30;5.90;;;32.50;65.10;;;;;;5053215;28;20021;-65
2022/05/16 10:15:43;;;;;;;12.38;6.22;;;32.50;65.10;;;;;;5053087;28;20013;-63
2022/05/16 10:18:16;;;;;;;12.77;6.28;;;32.20;65.80;;;;;;5051688;28;20114;-67
2022/05/16 10:20:46;;;;;;;8.35;4.95;;;31.80;66.70;;;;;;5052857;28;20509;-63
2022/05/16 10:23:22;;;;;;;10.68;5.40;;;31.00;68.30;;;;;;5052609;28;20029;-65
2022/05/16 10:25:52;;;;;;;12.85;4.95;;;30.30;69.70;;;;;;5051635;28;20615;-66
2022/05/16 10:28:24;;;;;;;13.13;5.45;;;29.90;70.80;;;;;;5054199;28;20021;-63
2022/05/16 10:33:37;;;;;;;14.98;5.15;;;29.90;71.70;;;;;;5060079;28;20475;-63
2022/05/16 10:36:07;;;;;;;11.10;4.55;;;29.90;72.30;;;;;;5052946;28;20040;-67
2022/05/16 10:38:48;;;;;;;11.02;4.57;;;30.10;72.20;;;;;;5054075;28;20037;-63
2022/05/16 10:41:21;;;;;;;10.38;4.45;;;30.50;71.80;;;;;;5054288;28;20108;-63
2022/05/16 10:44:09;;;;;;;11.27;4.30;;;30.20;72.20;;;;;;5054224;28;20017;-63
2022/05/16 10:46:41;;;;;;;7.82;4.60;;;29.40;74.00;;;;;;5054052;28;20133;-62
2022/05/16 10:49:18;;;;;;;12.40;5.05;;;28.60;80.50;;;;;;5053983;28;20025;-65
2022/05/16 10:52:16;;;;;;;14.07;5.88;;;27.90;84.10;;;;;;5053920;28;20024;-62
2022/05/16 10:54:41;;;;;;;18.65;6.07;;;26.60;89.50;;;;;;5053354;28;20025;-62
2022/05/16 10:57:15;;;;;;;18.15;6.10;;;25.50;92.60;;;;;;5053588;28;20025;-63
2022/05/16 10:59:47;;;;;;;15.45;6.03;;;24.20;95.90;;;;;;5053223;28;20037;-64
2022/05/16 11:02:38;;;;;;;17.48;7.25;;;22.90;99.90;;;;;;5052322;28;20016;-63
2022/05/16 11:05:21;;;;;;;17.92;7.93;;;21.90;99.90;;;;;;5052924;28;20051;-64
2022/05/16 11:08:09;;;;;;;24.10;9.70;;;21.20;99.90;;;;;;5053347;28;20028;-62
2022/05/16 11:10:47;;;;;;;28.58;10.13;;;20.60;99.90;;;;;;5053363;28;20028;-62
2022/05/16 11:13:36;;;;;;;25.08;9.63;;;20.30;99.90;;;;;;5053379;28;20028;-62
2022/05/16 11:16:13;;;;;;;24.27;10.18;;;20.10;99.90;;;;;;5053486;28;20032;-64
2022/05/16 11:19:05;;;;;;;26.88;10.07;;;20.00;99.90;;;;;;5053000;28;20040;-64
2022/05/16 11:21:52;;;;;;;27.23;10.47;;;19.90;99.90;;;;;;5053113;28;20066;-63
2022/05/16 11:24:36;;;;;;;24.80;10.48;;;20.10;99.90;;;;;;5053568;28;20120;-62
2022/05/16 11:27:15;;;;;;;29.08;12.68;;;20.30;99.90;;;;;;5052906;28;20052;-63
2022/05/16 11:30:35;;;;;;;26.15;11.63;;;20.60;99.90;;;;;;5052855;28;20072;-62
2022/05/16 11:33:27;;;;;;;27.35;11.35;;;21.50;99.90;;;;;;5030782;28;20489;-64
2022/05/16 11:36:01;;;;;;;25.52;12.00;;;21.90;99.90;;;;;;5053257;28;20021;-63
2022/05/16 11:38:37;;;;;;;26.50;12.13;;;21.70;99.90;;;;;;5052886;28;20045;-62
2022/05/16 11:41:32;;;;;;;25.95;12.27;;;21.60;99.90;;;;;;5053087;28;20183;-62
2022/05/16 11:44:21;;;;;;;24.73;12.63;;;21.50;99.90;;;;;;5052469;28;20408;-62
2022/05/16 11:47:05;;;;;;;28.10;12.77;;;21.50;99.90;;;;;;5052016;28;20651;-62
2022/05/16 11:49:49;;;;;;;22.70;12.63;;;21.70;99.90;;;;;;5032982;28;20021;-62
2022/05/16 11:52:22;;;;;;;25.17;12.15;;;21.80;99.90;;;;;;5032666;28;20033;-62
2022/05/16 11:54:55;;;;;;;22.08;11.15;;;21.70;99.90;;;;;;5032548;28;20028;-62
2022/05/16 12:02:51;;;;;;;29.42;13.93;;;21.70;99.90;;;;;;5052483;28;20071;-62
2022/05/16 12:05:22;;;;;;;28.80;14.27;;;21.70;99.90;;;;;;5052493;28;20082;-61
2022/05/16 12:07:57;;;;;;;24.90;12.75;;;21.50;99.90;;;;;;5051403;28;20372;-62
2022/05/16 12:10:25;;;;;;;31.02;14.88;;;21.20;99.90;;;;;;5052680;28;20021;-63
2022/05/16 12:13:23;;;;;;;33.75;15.75;;;20.80;99.90;;;;;;5052373;28;20025;-63
2022/05/16 12:16:11;;;;;;;34.65;14.65;;;20.40;99.90;;;;;;5051176;28;20376;-63
2022/05/16 12:18:39;;;;;;;31.02;14.80;;;20.30;99.90;;;;;;5052506;28;20048;-65
2022/05/16 12:21:10;;;;;;;38.13;15.60;;;20.20;99.90;;;;;;5050398;28;20025;-66
2022/05/16 12:23:48;;;;;;;35.50;15.55;;;20.00;99.90;;;;;;5052469;28;20029;-63
2022/05/16 12:26:31;;;;;;;34.13;13.23;;;19.90;99.90;;;;;;5052095;28;20025;-64
2022/05/16 12:29:08;;;;;;;33.65;13.57;;;19.90;99.90;;;;;;5052408;28;20021;-63
2022/05/16 12:31:49;;;;;;;38.90;16.92;;;19.80;99.90;;;;;;5052620;28;20476;-63
2022/05/16 12:34:40;;;;;;;32.60;15.63;;;19.80;99.90;;;;;;5051980;28;20099;-63
2022/05/16 12:37:11;;;;;;;23.73;10.45;;;19.80;99.90;;;;;;5052049;28;20021;-66
2022/05/16 12:40:03;;;;;;;36.37;19.23;;;19.60;99.90;;;;;;5052323;28;20136;-65
2022/05/16 12:43:00;;;;;;;35.15;17.02;;;19.60;99.90;;;;;;5055583;28;20088;-65
2022/05/16 12:45:38;;;;;;;34.20;16.90;;;19.50;99.90;;;;;;5056252;28;20373;-64
2022/05/16 12:48:35;;;;;;;38.35;15.98;;;19.20;99.90;;;;;;5056137;28;20106;-64
2022/05/16 12:51:35;;;;;;;34.05;17.67;;;19.00;99.90;;;;;;5054664;28;20480;-63
2022/05/16 12:54:04;;;;;;;36.33;14.60;;;18.90;99.90;;;;;;5054396;28;20407;-64
2022/05/16 12:56:40;;;;;;;38.17;16.05;;;19.00;99.90;;;;;;5054626;28;20017;-63
2022/05/16 12:59:26;;;;;;;29.95;14.27;;;19.30;99.90;;;;;;5054531;28;20029;-63
2022/05/16 13:02:17;;;;;;;30.50;14.80;;;19.70;99.90;;;;;;5054991;28;20052;-68
2022/05/16 13:05:14;;;;;;;30.73;13.68;;;20.30;99.90;;;;;;5055389;28;20067;-63
2022/05/16 13:08:05;;;;;;;30.33;12.50;;;20.90;99.90;;;;;;5055741;28;20028;-65
2022/05/16 13:10:46;;;;;;;26.20;12.52;;;21.20;99.90;;;;;;5055966;28;20017;-63
2022/05/16 13:13:21;;;;;;;25.43;10.33;;;21.40;99.90;;;;;;5055393;28;20052;-63
2022/05/16 13:15:57;;;;;;;21.95;10.10;;;21.70;99.90;;;;;;5055716;28;20112;-61
2022/05/16 13:18:26;;;;;;;25.25;10.15;;;21.80;99.90;;;;;;5055309;28;20029;-63
2022/05/16 13:20:56;;;;;;;26.45;9.65;;;22.00;99.90;;;;;;5055555;28;20075;-61
2022/05/16 13:23:22;;;;;;;23.52;10.45;;;22.20;99.90;;;;;;5055692;28;20028;-62
2022/05/16 13:31:33;;;;;;;20.95;9.23;;;22.20;99.90;;;;;;5055668;28;20048;-63